Time;durP1;ratioP1;P1;durP2;ratioP2;P2;SDS_P1;SDS_P2;PMS_P1;PMS_P2;Temp;Humidity;BMP_temperature;BMP_pressure;BME280_temperature;BME280_humidity;BME280_pressure;Samples;Min_cycle;Max_cycle;Signal;HPM_P1;HPM_P2
2024/04/05 00:01:40;;;;;;;44.35;9.15;;;;;;;11.49;100.00;100882.88;4985780;28;20273;-64
2024/04/05 00:04:07;;;;;;;48.13;9.23;;;;;;;11.47;100.00;100874.00;4992011;28;20183;-63
2024/04/05 00:06:33;;;;;;;58.45;9.95;;;;;;;11.43;100.00;100876.81;4992290;28;20240;-63
2024/04/05 00:08:58;;;;;;;36.72;7.95;;;;;;;11.35;100.00;100841.44;4997739;28;20190;-63
2024/04/05 00:11:24;;;;;;;49.03;8.88;;;;;;;11.42;100.00;100879.56;4997670;28;20177;-64
2024/04/05 00:13:52;;;;;;;37.83;7.60;;;;;;;11.27;100.00;100883.84;4998006;28;20181;-64
2024/04/05 00:16:17;;;;;;;43.78;8.88;;;;;;;11.26;100.00;100886.59;4980044;28;20288;-63
2024/04/05 00:18:42;;;;;;;53.70;7.82;;;;;;;11.30;100.00;100880.13;4980215;28;20272;-64
2024/04/05 00:21:08;;;;;;;37.42;7.30;;;;;;;11.28;100.00;100871.31;4997439;28;20190;-64
2024/04/05 00:23:34;;;;;;;46.47;7.63;;;;;;;11.30;100.00;100869.41;4985432;28;20598;-63
2024/04/05 00:26:04;;;;;;;36.42;6.32;;;;;;;11.31;100.00;100863.97;4997638;28;20216;-64
2024/04/05 00:28:30;;;;;;;40.08;6.95;;;;;;;11.39;100.00;100855.59;4997993;28;20170;-63
2024/04/05 00:30:56;;;;;;;47.97;7.35;;;;;;;11.28;100.00;100849.84;4984452;28;20382;-64
2024/04/05 00:33:22;;;;;;;51.63;7.75;;;;;;;11.38;100.00;100872.63;4997328;28;20637;-64
2024/04/05 00:35:51;;;;;;;33.97;7.10;;;;;;;11.53;100.00;100879.97;4996729;28;20206;-64
2024/04/05 00:38:23;;;;;;;46.22;7.95;;;;;;;11.19;100.00;100859.19;4997433;28;20190;-64
2024/04/05 00:40:49;;;;;;;41.08;6.80;;;;;;;11.43;100.00;100870.59;4996909;28;20272;-63
2024/04/05 00:43:14;;;;;;;35.33;7.35;;;;;;;11.25;100.00;100866.94;4996600;28;20613;-64
2024/04/05 00:45:40;;;;;;;32.15;5.78;;;;;;;11.25;100.00;100877.66;4985251;28;20190;-64
2024/04/05 00:48:07;;;;;;;44.63;8.43;;;;;;;11.28;100.00;100876.66;4996154;28;20182;-63
2024/04/05 00:50:32;;;;;;;46.10;9.32;;;;;;;11.14;100.00;100879.97;4997354;28;20182;-64
2024/04/05 00:53:00;;;;;;;43.42;7.90;;;;;;;11.26;100.00;100886.59;4996052;28;20252;-64
2024/04/05 00:55:26;;;;;;;41.22;8.85;;;;;;;11.24;100.00;100874.13;4997196;28;20176;-64
2024/04/05 00:57:53;;;;;;;34.65;7.03;;;;;;;11.36;100.00;100875.38;4995253;28;20202;-63
2024/04/05 01:00:20;;;;;;;45.03;7.95;;;;;;;11.36;100.00;100885.22;4996638;28;20228;-63
2024/04/05 01:02:45;;;;;;;37.28;6.95;;;;;;;11.25;100.00;100850.84;4997447;28;20242;-63
2024/04/05 01:05:12;;;;;;;43.40;7.63;;;;;;;11.52;100.00;100880.03;4997069;28;20235;-63
2024/04/05 01:07:37;;;;;;;49.22;9.90;;;;;;;11.61;100.00;100879.63;4997290;28;20208;-63
2024/04/05 01:10:03;;;;;;;37.53;8.73;;;;;;;11.59;100.00;100870.75;4995402;28;20194;-63
2024/04/05 01:12:29;;;;;;;36.45;7.63;;;;;;;11.60;100.00;100875.19;4996941;28;20587;-63
2024/04/05 01:14:54;;;;;;;42.05;8.23;;;;;;;11.56;100.00;100876.25;4996575;28;20189;-64
2024/04/05 01:17:20;;;;;;;46.97;8.82;;;;;;;11.62;100.00;100877.78;4996287;28;20204;-63
2024/04/05 01:19:46;;;;;;;45.50;8.63;;;;;;;11.68;100.00;100880.19;4979497;28;20194;-63
2024/04/05 01:22:12;;;;;;;45.15;9.38;;;;;;;11.57;100.00;100880.69;4996085;28;20266;-63
2024/04/05 01:24:41;;;;;;;51.45;8.68;;;;;;;11.59;100.00;100887.72;4995316;28;20710;-64
2024/04/05 01:27:06;;;;;;;48.90;8.18;;;;;;;11.55;100.00;100863.81;4996594;28;20208;-63
2024/04/05 01:29:31;;;;;;;47.72;9.55;;;;;;;11.56;100.00;100882.50;4983810;28;20277;-63
2024/04/05 01:31:57;;;;;;;45.60;8.52;;;;;;;11.68;100.00;100883.72;4996501;28;20220;-63
2024/04/05 01:34:22;;;;;;;41.83;6.95;;;;;;;11.62;100.00;100867.91;4996314;28;20293;-63
2024/04/05 01:36:47;;;;;;;43.65;7.60;;;;;;;11.66;100.00;100877.56;4996205;28;20698;-63
2024/04/05 01:39:13;;;;;;;37.50;6.88;;;;;;;11.82;100.00;100860.75;4996074;28;20247;-63
2024/04/05 01:41:38;;;;;;;34.53;5.97;;;;;;;11.83;100.00;100862.50;4986914;28;20217;-63
2024/04/05 01:44:04;;;;;;;30.17;6.85;;;;;;;11.95;100.00;100833.25;4992742;28;20284;-63
2024/04/05 01:46:29;;;;;;;31.20;5.28;;;;;;;12.11;100.00;100835.19;4996342;28;20209;-63
2024/04/05 01:48:54;;;;;;;24.60;5.45;;;;;;;12.30;100.00;100853.97;4996057;28;20562;-63
2024/04/05 01:51:20;;;;;;;24.55;4.70;;;;;;;12.14;100.00;100859.22;4995176;28;20185;-63
2024/04/05 01:53:45;;;;;;;20.92;5.38;;;;;;;12.19;100.00;100869.72;4995001;28;20189;-63
2024/04/05 01:56:10;;;;;;;21.23;4.13;;;;;;;12.18;100.00;100866.19;4996052;28;20225;-63
2024/04/05 01:58:37;;;;;;;25.90;5.57;;;;;;;12.27;100.00;100867.53;4992944;28;20217;-63
2024/04/05 02:01:03;;;;;;;15.98;4.22;;;;;;;12.25;100.00;100855.97;4985956;28;20194;-63
2024/04/05 02:03:29;;;;;;;15.75;3.90;;;;;;;12.32;100.00;100857.44;4995992;28;20186;-63
2024/04/05 02:05:54;;;;;;;13.45;2.70;;;;;;;12.30;100.00;100864.69;4985726;28;20179;-63
2024/04/05 02:08:19;;;;;;;17.73;3.05;;;;;;;12.23;100.00;100868.63;4979183;28;20671;-64
2024/04/05 02:10:46;;;;;;;16.02;3.13;;;;;;;12.35;100.00;100856.41;4995658;28;20213;-63
2024/04/05 02:13:11;;;;;;;13.82;2.97;;;;;;;12.36;100.00;100860.81;4995379;28;20188;-63
2024/04/05 02:15:37;;;;;;;14.38;3.40;;;;;;;12.27;100.00;100863.03;4995306;28;20197;-63
2024/04/05 02:18:04;;;;;;;16.25;2.60;;;;;;;12.39;100.00;100858.88;4986060;28;20214;-63
2024/04/05 02:20:29;;;;;;;15.70;2.47;;;;;;;12.15;100.00;100814.44;4986384;28;20229;-64
2024/04/05 02:22:55;;;;;;;17.20;2.78;;;;;;;12.25;100.00;100850.63;4995382;28;20190;-64
2024/04/05 02:25:20;;;;;;;21.27;3.42;;;;;;;12.38;100.00;100846.38;4995094;28;20217;-64
2024/04/05 02:27:46;;;;;;;17.75;2.97;;;;;;;12.51;100.00;100841.25;4995394;28;20209;-64
2024/04/05 02:30:11;;;;;;;21.88;4.70;;;;;;;12.40;100.00;100852.53;4981235;28;20194;-64
2024/04/05 02:32:36;;;;;;;20.45;3.92;;;;;;;12.60;100.00;100838.09;4990629;28;20190;-64
2024/04/05 02:35:02;;;;;;;22.02;3.90;;;;;;;12.48;100.00;100828.84;4980991;28;20740;-64
2024/04/05 02:37:27;;;;;;;21.90;4.72;;;;;;;12.44;100.00;100818.34;4989615;28;20210;-63
2024/04/05 02:39:52;;;;;;;30.40;5.60;;;;;;;12.67;100.00;100804.56;4984808;28;20661;-63
2024/04/05 02:42:18;;;;;;;28.33;5.82;;;;;;;12.72;100.00;100817.75;4995042;28;20186;-64
2024/04/05 02:44:43;;;;;;;19.90;4.93;;;;;;;12.88;100.00;100833.09;4994799;28;20182;-63
2024/04/05 02:47:10;;;;;;;21.23;4.65;;;;;;;12.79;100.00;100824.56;4994989;28;20185;-63
2024/04/05 02:49:35;;;;;;;21.25;5.18;;;;;;;12.82;100.00;100826.22;4995569;28;20185;-64
2024/04/05 02:52:01;;;;;;;24.73;5.28;;;;;;;12.61;100.00;100822.84;4994865;28;20208;-63
2024/04/05 02:54:26;;;;;;;23.50;4.85;;;;;;;12.90;100.00;100820.44;4989173;28;20613;-63
2024/04/05 02:56:52;;;;;;;27.48;5.47;;;;;;;12.73;100.00;100827.56;4980749;28;20205;-63
2024/04/05 02:59:17;;;;;;;21.13;4.63;;;;;;;12.83;100.00;100838.69;4994565;28;20716;-63
2024/04/05 03:01:43;;;;;;;20.75;5.22;;;;;;;12.75;100.00;100830.19;4993431;28;20602;-64
2024/04/05 03:04:08;;;;;;;21.30;5.35;;;;;;;12.73;100.00;100834.78;4994401;28;20186;-63
2024/04/05 03:06:33;;;;;;;21.38;4.93;;;;;;;12.86;100.00;100835.84;4984991;28;20186;-63
2024/04/05 03:08:59;;;;;;;21.63;4.57;;;;;;;12.72;100.00;100833.88;4994610;28;20690;-63
2024/04/05 03:11:24;;;;;;;30.05;5.10;;;;;;;12.56;100.00;100811.47;4994338;28;20217;-63
2024/04/05 03:13:49;;;;;;;27.83;5.47;;;;;;;12.70;100.00;100810.75;4994654;28;20182;-63
2024/04/05 03:16:15;;;;;;;26.80;4.88;;;;;;;12.96;100.00;100833.56;4993867;28;20202;-64
2024/04/05 03:18:41;;;;;;;25.10;4.95;;;;;;;12.92;100.00;100821.22;4994816;28;20174;-64
2024/04/05 03:21:06;;;;;;;19.02;4.20;;;;;;;12.92;100.00;100838.22;4981068;28;20653;-64
2024/04/05 03:23:32;;;;;;;21.27;4.43;;;;;;;12.87;100.00;100825.97;4995311;28;20185;-63
2024/04/05 03:25:57;;;;;;;27.45;4.80;;;;;;;12.79;100.00;100816.50;4996059;28;20270;-64
2024/04/05 03:28:23;;;;;;;20.98;4.22;;;;;;;12.81;100.00;100817.28;4977712;28;20190;-64
2024/04/05 03:30:48;;;;;;;25.00;5.03;;;;;;;12.89;100.00;100818.69;4993446;28;20664;-64
2024/04/05 03:33:13;;;;;;;24.88;5.13;;;;;;;12.63;100.00;100794.94;4993977;28;20648;-63
2024/04/05 03:35:39;;;;;;;25.30;4.90;;;;;;;12.66;100.00;100808.22;4993359;28;20576;-63
2024/04/05 03:38:05;;;;;;;28.55;5.93;;;;;;;12.55;100.00;100807.03;4986833;28;20205;-63
2024/04/05 03:40:30;;;;;;;27.45;5.80;;;;;;;12.58;100.00;100820.31;4988031;28;20530;-63
2024/04/05 03:42:56;;;;;;;26.50;5.30;;;;;;;12.48;100.00;100826.16;4993137;28;20182;-63
2024/04/05 03:45:21;;;;;;;23.42;5.32;;;;;;;12.57;100.00;100821.25;4993159;28;20197;-63
2024/04/05 03:47:46;;;;;;;26.52;4.60;;;;;;;12.58;100.00;100817.63;4994879;28;20601;-63
2024/04/05 03:50:13;;;;;;;31.88;6.60;;;;;;;12.51;100.00;100827.84;4994535;28;20247;-63
2024/04/05 03:52:38;;;;;;;29.13;5.68;;;;;;;12.70;100.00;100822.34;4983408;28;20181;-64
2024/04/05 03:55:06;;;;;;;30.38;6.10;;;;;;;12.73;100.00;100819.50;4994277;28;20177;-64
2024/04/05 03:57:32;;;;;;;31.67;5.45;;;;;;;12.91;100.00;100800.66;4994385;28;20213;-64
2024/04/05 03:59:58;;;;;;;25.92;6.40;;;;;;;13.03;100.00;100800.88;4993634;28;20256;-64
2024/04/05 04:02:24;;;;;;;31.60;5.45;;;;;;;12.99;100.00;100798.44;4994220;28;20181;-64
2024/04/05 04:04:51;;;;;;;24.00;6.20;;;;;;;12.67;100.00;100791.13;4992429;28;20190;-64
2024/04/05 04:07:16;;;;;;;36.72;8.13;;;;;;;12.76;100.00;100799.66;4982529;28;20247;-64
2024/04/05 04:09:41;;;;;;;22.38;6.07;;;;;;;12.78;100.00;100790.56;4994337;28;20277;-63
2024/04/05 04:12:08;;;;;;;29.60;6.15;;;;;;;12.57;100.00;100789.91;4994137;28;20193;-64
2024/04/05 04:14:33;;;;;;;29.50;6.15;;;;;;;12.67;100.00;100803.72;4994547;28;20240;-64
2024/04/05 04:16:58;;;;;;;30.60;6.28;;;;;;;12.59;100.00;100811.31;4993009;28;20677;-64
2024/04/05 04:19:25;;;;;;;32.78;8.10;;;;;;;12.75;100.00;100800.63;4974776;28;20190;-64
2024/04/05 04:21:51;;;;;;;36.22;8.45;;;;;;;12.57;100.00;100792.59;4988709;28;20190;-64
2024/04/05 04:24:19;;;;;;;34.55;7.13;;;;;;;12.55;100.00;100769.41;4992871;28;20573;-63
2024/04/05 04:26:45;;;;;;;23.60;6.63;;;;;;;12.55;100.00;100764.91;4981970;28;20182;-63
2024/04/05 04:29:10;;;;;;;22.63;5.95;;;;;;;12.79;100.00;100773.50;4985562;28;20182;-63
2024/04/05 04:31:36;;;;;;;34.00;6.85;;;;;;;12.90;100.00;100777.44;4988263;28;20184;-63
2024/04/05 04:34:03;;;;;;;28.23;7.68;;;;;;;12.98;100.00;100783.25;4987574;28;20213;-63
2024/04/05 04:36:28;;;;;;;31.30;7.43;;;;;;;12.67;100.00;100779.53;4982991;28;20264;-64
2024/04/05 04:38:54;;;;;;;29.20;7.05;;;;;;;12.73;100.00;100773.81;4987395;28;20193;-63
2024/04/05 04:41:20;;;;;;;27.65;7.07;;;;;;;12.84;100.00;100766.03;4995604;28;20599;-63
2024/04/05 04:43:46;;;;;;;23.55;7.35;;;;;;;13.04;100.00;100769.47;4987057;28;20174;-63
2024/04/05 04:46:12;;;;;;;31.00;7.22;;;;;;;12.97;100.00;100768.06;4996164;28;20265;-64
2024/04/05 04:48:38;;;;;;;32.05;7.25;;;;;;;12.77;100.00;100758.38;4997451;28;20274;-64
2024/04/05 04:51:03;;;;;;;33.15;7.45;;;;;;;12.97;100.00;100746.53;4984817;28;20308;-64
2024/04/05 04:53:29;;;;;;;35.83;7.22;;;;;;;12.96;100.00;100748.38;4996934;28;20583;-64
2024/04/05 04:55:54;;;;;;;20.90;6.70;;;;;;;12.71;100.00;100747.97;4996967;28;20228;-62
2024/04/05 04:58:22;;;;;;;27.67;6.85;;;;;;;12.75;100.00;100738.78;4996771;28;20192;-62
2024/04/05 05:00:50;;;;;;;37.25;7.22;;;;;;;12.83;100.00;100750.00;4995537;28;20222;-64
2024/04/05 05:03:15;;;;;;;30.90;7.15;;;;;;;12.88;100.00;100745.25;4996742;28;20194;-64
2024/04/05 05:05:42;;;;;;;26.23;6.80;;;;;;;12.83;100.00;100726.69;4996781;28;20197;-62
2024/04/05 05:08:11;;;;;;;23.45;6.10;;;;;;;12.65;100.00;100722.31;4996837;28;20197;-64
2024/04/05 05:10:38;;;;;;;27.45;7.68;;;;;;;12.68;100.00;100706.00;4997025;28;20688;-64
2024/04/05 05:13:09;;;;;;;26.85;6.43;;;;;;;12.66;100.00;100735.66;4996397;28;20220;-64
2024/04/05 05:15:34;;;;;;;32.75;6.30;;;;;;;12.80;100.00;100732.22;4996370;28;20181;-64
2024/04/05 05:18:00;;;;;;;27.92;6.80;;;;;;;12.62;100.00;100727.84;4996662;28;20202;-64
2024/04/05 05:20:28;;;;;;;29.90;7.70;;;;;;;12.33;100.00;100732.94;4989862;28;20665;-63
2024/04/05 05:22:54;;;;;;;30.75;6.95;;;;;;;12.31;100.00;100757.19;4991840;28;20204;-64
2024/04/05 05:25:19;;;;;;;27.70;6.57;;;;;;;12.40;100.00;100761.19;4995378;28;20196;-64
2024/04/05 05:27:44;;;;;;;32.95;7.78;;;;;;;12.32;100.00;100766.09;4994933;28;20197;-63
2024/04/05 05:30:11;;;;;;;29.38;8.10;;;;;;;12.34;100.00;100766.88;4996258;28;20186;-64
2024/04/05 05:32:37;;;;;;;28.10;7.00;;;;;;;12.47;100.00;100762.63;4996436;28;20194;-64
2024/04/05 05:35:03;;;;;;;22.45;6.55;;;;;;;12.29;100.00;100753.69;4996127;28;20205;-62
2024/04/05 05:37:29;;;;;;;34.00;7.85;;;;;;;12.24;100.00;100752.22;4996177;28;20205;-65
2024/04/05 05:39:54;;;;;;;32.75;8.13;;;;;;;12.27;100.00;100749.38;4996353;28;20182;-62
2024/04/05 05:42:19;;;;;;;28.63;7.82;;;;;;;12.29;100.00;100742.94;4994946;28;20518;-64
2024/04/05 05:44:45;;;;;;;30.80;8.20;;;;;;;12.37;100.00;100750.59;4995138;28;20570;-63
2024/04/05 05:47:10;;;;;;;24.00;7.60;;;;;;;12.48;100.00;100744.66;4993773;28;20225;-63
2024/04/05 05:49:35;;;;;;;30.48;7.93;;;;;;;12.53;100.00;100739.09;4995754;28;20186;-63
2024/04/05 05:52:01;;;;;;;20.20;6.97;;;;;;;12.60;100.00;100735.09;4994821;28;20198;-63
2024/04/05 05:54:26;;;;;;;33.90;8.35;;;;;;;12.64;100.00;100731.31;4995687;28;20637;-63
2024/04/05 05:56:53;;;;;;;36.53;9.13;;;;;;;12.56;100.00;100717.44;4995684;28;20209;-63
2024/04/05 05:59:19;;;;;;;25.40;8.43;;;;;;;12.75;100.00;100725.34;4995651;28;20233;-63
2024/04/05 06:01:44;;;;;;;29.50;9.40;;;;;;;12.63;100.00;100719.69;4993523;28;20182;-63
2024/04/05 06:04:10;;;;;;;28.88;8.55;;;;;;;12.59;100.00;100722.63;4988206;28;20186;-63
2024/04/05 06:06:35;;;;;;;25.20;7.28;;;;;;;12.76;100.00;100730.66;4990046;28;20272;-63
2024/04/05 06:09:01;;;;;;;23.67;8.15;;;;;;;12.88;100.00;100720.16;4995320;28;20232;-63
2024/04/05 06:11:26;;;;;;;28.35;7.93;;;;;;;12.79;100.00;100711.66;4995303;28;20193;-63
2024/04/05 06:13:52;;;;;;;34.33;8.02;;;;;;;12.73;100.00;100717.38;4995293;28;20170;-63
2024/04/05 06:16:18;;;;;;;32.50;9.20;;;;;;;12.73;100.00;100720.06;4995033;28;20201;-63
2024/04/05 06:18:45;;;;;;;33.05;8.57;;;;;;;12.87;100.00;100697.81;4995983;28;20264;-63
2024/04/05 06:21:11;;;;;;;27.35;8.07;;;;;;;13.05;100.00;100695.91;4995679;28;20197;-63
2024/04/05 06:23:36;;;;;;;26.80;9.57;;;;;;;13.18;100.00;100694.28;4995744;28;20182;-63
2024/04/05 06:26:03;;;;;;;21.33;10.40;;;;;;;13.13;100.00;100693.66;4989660;28;20535;-63
2024/04/05 06:28:28;;;;;;;22.73;8.80;;;;;;;12.83;100.00;100685.47;4988385;28;20197;-63
2024/04/05 06:30:54;;;;;;;33.05;9.75;;;;;;;13.06;100.00;100673.44;4982295;28;20197;-63
2024/04/05 06:33:19;;;;;;;24.70;9.35;;;;;;;12.94;100.00;100663.38;4995006;28;20184;-63
2024/04/05 06:35:45;;;;;;;31.95;9.80;;;;;;;13.24;100.00;100657.22;4993897;28;20209;-64
2024/04/05 06:38:10;;;;;;;28.45;8.93;;;;;;;13.31;100.00;100647.84;4983102;28;20541;-63
2024/04/05 06:40:36;;;;;;;26.58;9.13;;;;;;;13.16;100.00;100649.59;4994032;28;20240;-63
2024/04/05 06:43:06;;;;;;;33.17;9.70;;;;;;;13.04;100.00;100648.47;4993669;28;20562;-63
2024/04/05 06:45:32;;;;;;;31.73;9.23;;;;;;;13.01;100.00;100649.50;4994950;28;20596;-64
2024/04/05 06:47:58;;;;;;;28.30;8.70;;;;;;;12.67;100.00;100635.25;4994818;28;20181;-63
2024/04/05 06:50:25;;;;;;;24.23;8.65;;;;;;;13.05;100.00;100643.94;4977531;28;20514;-64
2024/04/05 06:52:55;;;;;;;34.13;10.98;;;;;;;13.19;100.00;100644.91;4993550;28;20642;-64
2024/04/05 06:55:22;;;;;;;27.08;8.75;;;;;;;13.19;100.00;100628.75;4981399;28;20639;-63
2024/04/05 06:57:47;;;;;;;23.60;9.05;;;;;;;13.08;100.00;100625.81;4994475;28;20200;-64
2024/04/05 07:00:15;;;;;;;31.83;7.97;;;;;;;13.16;100.00;100607.41;4986466;28;20226;-64
2024/04/05 07:02:41;;;;;;;24.35;7.90;;;;;;;13.27;100.00;100590.66;4989105;28;20193;-63
2024/04/05 07:05:06;;;;;;;22.27;7.88;;;;;;;13.33;100.00;100576.88;4994628;28;20205;-63
2024/04/05 07:07:31;;;;;;;24.52;7.72;;;;;;;13.42;100.00;100575.47;4993232;28;20293;-64
2024/04/05 07:09:57;;;;;;;16.80;7.63;;;;;;;13.30;100.00;100587.78;4994444;28;20189;-63
2024/04/05 07:12:22;;;;;;;21.33;7.05;;;;;;;13.48;100.00;100588.56;4994769;28;20267;-63
2024/04/05 07:14:47;;;;;;;22.27;6.63;;;;;;;13.05;100.00;100593.72;4994496;28;20216;-63
2024/04/05 07:17:13;;;;;;;19.90;7.00;;;;;;;13.05;100.00;100592.84;4994305;28;20656;-63
2024/04/05 07:19:38;;;;;;;18.17;6.32;;;;;;;13.09;100.00;100581.81;4994498;28;20216;-63
2024/04/05 07:22:03;;;;;;;16.98;6.10;;;;;;;13.05;100.00;100580.28;4994094;28;20182;-63
2024/04/05 07:24:29;;;;;;;17.52;5.47;;;;;;;13.34;100.00;100561.63;4993762;28;20188;-64
2024/04/05 07:26:54;;;;;;;19.55;6.95;;;;;;;13.56;100.00;100548.59;4993793;28;20189;-64
2024/04/05 07:29:19;;;;;;;14.50;4.93;;;;;;;13.67;100.00;100536.31;4994176;28;20821;-63
2024/04/05 07:31:48;;;;;;;17.77;6.20;;;;;;;13.54;100.00;100518.22;4993755;28;20543;-64
2024/04/05 07:34:13;;;;;;;25.27;6.05;;;;;;;13.57;100.00;100519.88;4993251;28;20181;-64
2024/04/05 07:36:38;;;;;;;22.70;7.38;;;;;;;13.63;100.00;100524.88;4994278;28;20660;-64
2024/04/05 07:39:04;;;;;;;21.80;7.05;;;;;;;13.80;100.00;100499.63;4994035;28;20272;-64
2024/04/05 07:41:29;;;;;;;21.23;6.28;;;;;;;13.86;100.00;100510.00;4994257;28;20232;-63
2024/04/05 07:43:54;;;;;;;21.70;7.00;;;;;;;13.66;100.00;100527.38;4993181;28;20194;-63
2024/04/05 07:46:20;;;;;;;28.02;6.97;;;;;;;13.36;100.00;100524.72;4981309;28;20281;-63
2024/04/05 07:48:46;;;;;;;27.38;7.00;;;;;;;13.51;100.00;100533.72;4993151;28;20224;-64
2024/04/05 07:51:11;;;;;;;24.92;6.60;;;;;;;13.52;100.00;100519.28;4982689;28;20270;-64
2024/04/05 07:53:36;;;;;;;17.42;7.63;;;;;;;13.59;100.00;100517.09;4994055;28;20209;-64
2024/04/05 07:56:05;;;;;;;23.48;7.20;;;;;;;13.69;100.00;100515.53;4994046;28;20186;-64
2024/04/05 07:58:31;;;;;;;20.50;6.93;;;;;;;13.67;100.00;100509.41;4993698;28;20289;-64
2024/04/05 08:00:56;;;;;;;18.33;6.60;;;;;;;13.43;100.00;100493.81;4992726;28;20369;-64
2024/04/05 08:03:22;;;;;;;26.42;7.25;;;;;;;13.52;100.00;100497.75;4993921;28;20217;-64
2024/04/05 08:05:48;;;;;;;18.40;5.95;;;;;;;13.65;100.00;100511.34;4993949;28;20240;-64
2024/04/05 08:08:13;;;;;;;24.02;6.43;;;;;;;13.53;100.00;100499.47;4996382;28;20185;-64
2024/04/05 08:10:38;;;;;;;16.00;5.95;;;;;;;13.53;100.00;100504.88;4997776;28;20170;-63
2024/04/05 08:13:04;;;;;;;21.83;7.65;;;;;;;13.58;100.00;100504.59;4996425;28;20186;-64
2024/04/05 08:15:30;;;;;;;14.80;5.70;;;;;;;13.66;100.00;100507.66;4997871;28;20555;-63
2024/04/05 08:17:56;;;;;;;18.20;5.43;;;;;;;13.73;100.00;100501.81;4997277;28;20248;-64
2024/04/05 08:20:21;;;;;;;21.40;6.22;;;;;;;13.72;100.00;100500.09;4997736;28;20600;-63
2024/04/05 08:22:47;;;;;;;24.58;6.32;;;;;;;13.62;100.00;100524.97;4997586;28;20263;-63
2024/04/05 08:25:13;;;;;;;21.50;5.45;;;;;;;13.53;100.00;100527.25;4996413;28;20189;-63
2024/04/05 08:27:38;;;;;;;24.15;5.05;;;;;;;13.33;100.00;100503.34;4995635;28;20193;-63
2024/04/05 08:30:05;;;;;;;14.63;4.35;;;;;;;13.29;100.00;100520.63;4997185;28;20190;-64
2024/04/05 08:32:30;;;;;;;25.70;5.50;;;;;;;13.24;100.00;100537.03;4997417;28;20194;-64
2024/04/05 08:34:56;;;;;;;17.88;6.07;;;;;;;13.12;100.00;100503.66;4996509;28;20284;-64
2024/04/05 08:37:21;;;;;;;15.05;4.70;;;;;;;13.47;100.00;100511.47;4996627;28;20309;-64
2024/04/05 08:39:47;;;;;;;12.80;4.20;;;;;;;13.40;100.00;100514.63;4991653;28;20566;-64
2024/04/05 08:42:17;;;;;;;21.70;5.32;;;;;;;13.36;100.00;100516.66;4989965;28;20182;-64
2024/04/05 08:44:46;;;;;;;12.43;4.25;;;;;;;13.06;100.00;100471.75;4996446;28;20189;-63
2024/04/05 08:47:12;;;;;;;20.42;5.45;;;;;;;13.38;100.00;100517.41;4996339;28;20196;-64
2024/04/05 08:49:37;;;;;;;20.20;4.78;;;;;;;13.55;100.00;100524.47;4979206;28;20186;-64
2024/04/05 08:52:03;;;;;;;12.75;4.20;;;;;;;13.33;100.00;100514.13;4996162;28;20201;-64
2024/04/05 08:54:29;;;;;;;12.10;3.78;;;;;;;13.43;100.00;100493.81;4996385;28;20243;-63
2024/04/05 08:56:56;;;;;;;10.75;4.10;;;;;;;13.41;100.00;100503.78;4995669;28;20220;-64
2024/04/05 08:59:23;;;;;;;10.20;3.80;;;;;;;13.51;100.00;100486.13;4978581;28;20260;-64
2024/04/05 09:01:51;;;;;;;14.07;3.10;;;;;;;13.23;100.00;100472.56;4996109;28;20190;-64
2024/04/05 09:04:16;;;;;;;12.32;3.42;;;;;;;13.48;100.00;100499.75;4995146;28;20660;-63
2024/04/05 09:06:42;;;;;;;10.75;3.45;;;;;;;13.41;100.00;100508.31;4995938;28;20239;-63
2024/04/05 09:09:08;;;;;;;13.77;4.35;;;;;;;13.53;100.00;100488.72;4994921;28;20644;-64
2024/04/05 09:11:34;;;;;;;24.38;6.45;;;;;;;13.54;100.00;100507.47;4996152;28;20190;-64
2024/04/05 09:14:01;;;;;;;8.70;3.25;;;;;;;13.58;100.00;100507.28;4995842;28;20640;-63
2024/04/05 09:16:27;;;;;;;12.38;3.53;;;;;;;13.55;100.00;100511.00;4995586;28;20256;-64
2024/04/05 09:19:02;;;;;;;14.88;3.20;;;;;;;13.50;100.00;100508.59;4993561;28;20198;-64
2024/04/05 09:21:28;;;;;;;22.75;3.67;;;;;;;13.25;100.00;100508.34;4995503;28;20185;-64
2024/04/05 09:23:54;;;;;;;15.43;3.72;;;;;;;13.34;100.00;100508.66;4995700;28;20190;-63
2024/04/05 09:26:19;;;;;;;11.20;3.15;;;;;;;13.22;100.00;100471.72;4995832;28;20178;-64
2024/04/05 09:28:47;;;;;;;9.68;2.88;;;;;;;13.47;100.00;100494.47;4978180;28;20189;-64
2024/04/05 09:31:19;;;;;;;11.25;3.53;;;;;;;13.49;100.00;100501.50;4994240;28;20594;-64
2024/04/05 09:33:45;;;;;;;13.25;3.58;;;;;;;13.35;100.00;100474.56;4995578;28;20186;-63
2024/04/05 09:36:13;;;;;;;14.30;3.28;;;;;;;13.52;100.00;100482.47;4994983;28;20279;-64
2024/04/05 09:38:40;;;;;;;8.38;3.47;;;;;;;13.61;100.00;100502.56;4994143;28;20196;-63
2024/04/05 09:41:07;;;;;;;17.45;4.55;;;;;;;13.56;100.00;100489.38;4995724;28;20232;-64
2024/04/05 09:43:32;;;;;;;12.27;3.80;;;;;;;13.46;100.00;100493.63;4993941;28;20189;-64
2024/04/05 09:45:59;;;;;;;16.92;3.25;;;;;;;13.47;100.00;100489.09;4995253;28;20276;-64
2024/04/05 09:48:29;;;;;;;13.38;4.95;;;;;;;13.53;100.00;100492.25;4977979;28;20198;-63
2024/04/05 09:50:55;;;;;;;15.52;4.90;;;;;;;13.55;100.00;100498.44;4995249;28;20196;-63
2024/04/05 09:53:21;;;;;;;17.48;4.60;;;;;;;13.51;100.00;100494.19;4994132;28;20659;-63
2024/04/05 09:55:49;;;;;;;12.07;3.17;;;;;;;13.62;100.00;100492.69;4992911;28;21316;-64
2024/04/05 09:58:15;;;;;;;13.27;3.78;;;;;;;13.67;100.00;100485.19;4994229;28;20546;-63
2024/04/05 10:00:48;;;;;;;11.20;3.35;;;;;;;13.64;100.00;100472.75;4994480;28;20236;-63
2024/04/05 10:03:13;;;;;;;13.48;3.60;;;;;;;13.75;100.00;100464.03;4993484;28;20198;-65
2024/04/05 10:05:38;;;;;;;11.38;4.00;;;;;;;13.71;100.00;100441.81;4993885;28;20193;-63
2024/04/05 10:08:12;;;;;;;9.45;3.30;;;;;;;13.83;100.00;100448.28;4994754;28;20235;-63
2024/04/05 10:10:38;;;;;;;7.18;3.22;;;;;;;13.85;100.00;100438.25;4983039;28;20186;-63
2024/04/05 10:13:14;;;;;;;14.30;3.13;;;;;;;14.21;100.00;100441.38;4994669;28;20559;-64
2024/04/05 10:15:52;;;;;;;10.20;3.33;;;;;;;14.22;100.00;100432.34;4995409;28;20255;-63
2024/04/05 10:18:28;;;;;;;10.32;2.60;;;;;;;14.10;100.00;100431.31;4994516;28;20201;-63
2024/04/05 10:21:12;;;;;;;6.93;2.25;;;;;;;14.05;100.00;100417.28;4995245;28;20189;-64
2024/04/05 10:23:44;;;;;;;9.48;2.95;;;;;;;14.07;100.00;100423.41;4995049;28;20181;-63
2024/04/05 10:26:15;;;;;;;8.43;2.90;;;;;;;14.11;100.00;100422.28;4993382;28;20186;-63
2024/04/05 10:28:42;;;;;;;11.82;3.38;;;;;;;14.05;100.00;100428.91;4994669;28;20182;-63
2024/04/05 10:31:07;;;;;;;12.73;3.60;;;;;;;14.21;100.00;100436.88;4994189;28;20684;-63
2024/04/05 10:33:33;;;;;;;10.82;3.40;;;;;;;14.26;100.00;100415.03;4994640;28;20201;-62
2024/04/05 10:35:59;;;;;;;10.25;2.88;;;;;;;14.33;100.00;100428.94;4976744;28;20201;-63
2024/04/05 10:38:29;;;;;;;13.85;3.13;;;;;;;14.11;100.00;100430.34;4977031;28;20253;-63
2024/04/05 10:41:01;;;;;;;11.27;2.85;;;;;;;14.16;100.00;100432.75;4992613;28;20186;-63
2024/04/05 10:43:27;;;;;;;6.65;2.35;;;;;;;14.21;100.00;100425.22;4984968;28;20189;-63
2024/04/05 10:45:54;;;;;;;12.43;3.15;;;;;;;14.11;100.00;100437.56;4994039;28;20282;-62
2024/04/05 10:48:19;;;;;;;11.32;2.92;;;;;;;14.11;100.00;100461.81;4994321;28;20184;-62
2024/04/05 10:50:45;;;;;;;8.07;2.45;;;;;;;13.89;100.00;100477.50;4993824;28;20712;-63
2024/04/05 10:53:18;;;;;;;6.47;2.67;;;;;;;13.75;100.00;100437.09;4994171;28;20280;-62
2024/04/05 10:55:44;;;;;;;9.38;2.63;;;;;;;13.85;100.00;100467.03;4992843;28;20198;-63
2024/04/05 10:58:11;;;;;;;7.68;2.88;;;;;;;13.57;100.00;100436.44;4992829;28;20688;-63
2024/04/05 11:00:37;;;;;;;8.45;2.65;;;;;;;13.65;100.00;100479.88;4994279;28;20217;-63
2024/04/05 11:03:03;;;;;;;10.40;2.40;;;;;;;13.56;100.00;100486.69;4992972;28;20208;-63
2024/04/05 11:05:29;;;;;;;22.10;3.33;;;;;;;13.54;100.00;100485.94;4994039;28;20185;-63